sensor_id;sensor_type;location;lat;lon;timestamp;P1;durP1;ratioP1;P2;durP2;ratioP2
11431;SDS011;5772;50.940;6.782;2023-05-09T00:02:00;24.93;;;23.23;;
11431;SDS011;5772;50.940;6.782;2023-05-09T00:04:25;26.00;;;24.33;;
11431;SDS011;5772;50.940;6.782;2023-05-09T00:06:51;23.43;;;22.03;;
11431;SDS011;5772;50.940;6.782;2023-05-09T00:09:17;24.90;;;23.20;;
11431;SDS011;5772;50.940;6.782;2023-05-09T00:11:43;24.97;;;23.57;;
11431;SDS011;5772;50.940;6.782;2023-05-09T00:14:08;27.57;;;25.63;;
11431;SDS011;5772;50.940;6.782;2023-05-09T00:16:34;29.23;;;27.23;;
11431;SDS011;5772;50.940;6.782;2023-05-09T00:19:00;28.03;;;26.47;;
11431;SDS011;5772;50.940;6.782;2023-05-09T00:21:25;27.93;;;26.23;;
11431;SDS011;5772;50.940;6.782;2023-05-09T00:23:50;26.40;;;24.70;;
11431;SDS011;5772;50.940;6.782;2023-05-09T00:26:17;27.87;;;26.13;;
11431;SDS011;5772;50.940;6.782;2023-05-09T00:28:42;31.20;;;28.90;;
11431;SDS011;5772;50.940;6.782;2023-05-09T00:31:08;30.50;;;28.40;;
11431;SDS011;5772;50.940;6.782;2023-05-09T00:33:33;30.47;;;28.20;;
11431;SDS011;5772;50.940;6.782;2023-05-09T00:35:58;30.00;;;27.80;;
11431;SDS011;5772;50.940;6.782;2023-05-09T00:38:24;31.07;;;28.73;;
11431;SDS011;5772;50.940;6.782;2023-05-09T00:40:49;31.57;;;29.30;;
11431;SDS011;5772;50.940;6.782;2023-05-09T00:43:16;31.13;;;28.93;;
11431;SDS011;5772;50.940;6.782;2023-05-09T00:45:41;29.53;;;27.63;;
11431;SDS011;5772;50.940;6.782;2023-05-09T00:48:07;29.83;;;27.60;;
11431;SDS011;5772;50.940;6.782;2023-05-09T00:50:32;28.93;;;26.73;;
11431;SDS011;5772;50.940;6.782;2023-05-09T00:52:58;30.40;;;28.17;;
11431;SDS011;5772;50.940;6.782;2023-05-09T00:55:23;31.43;;;28.87;;
11431;SDS011;5772;50.940;6.782;2023-05-09T00:57:49;28.67;;;26.63;;
11431;SDS011;5772;50.940;6.782;2023-05-09T01:00:17;28.90;;;26.87;;
11431;SDS011;5772;50.940;6.782;2023-05-09T01:02:43;28.77;;;26.97;;
11431;SDS011;5772;50.940;6.782;2023-05-09T01:05:10;27.87;;;26.07;;
11431;SDS011;5772;50.940;6.782;2023-05-09T01:07:37;28.70;;;26.23;;
11431;SDS011;5772;50.940;6.782;2023-05-09T01:10:10;30.27;;;27.77;;
11431;SDS011;5772;50.940;6.782;2023-05-09T01:12:40;31.87;;;29.10;;
11431;SDS011;5772;50.940;6.782;2023-05-09T01:15:11;29.53;;;27.37;;
11431;SDS011;5772;50.940;6.782;2023-05-09T01:17:43;29.47;;;27.07;;
11431;SDS011;5772;50.940;6.782;2023-05-09T01:20:16;30.17;;;27.90;;
11431;SDS011;5772;50.940;6.782;2023-05-09T01:22:46;29.27;;;27.23;;
11431;SDS011;5772;50.940;6.782;2023-05-09T01:28:12;28.67;;;26.40;;
11431;SDS011;5772;50.940;6.782;2023-05-09T01:30:39;30.73;;;28.23;;
11431;SDS011;5772;50.940;6.782;2023-05-09T01:33:06;30.67;;;28.27;;
11431;SDS011;5772;50.940;6.782;2023-05-09T01:35:32;30.27;;;28.20;;
11431;SDS011;5772;50.940;6.782;2023-05-09T01:38:00;28.20;;;26.37;;
11431;SDS011;5772;50.940;6.782;2023-05-09T01:40:27;30.73;;;28.33;;
11431;SDS011;5772;50.940;6.782;2023-05-09T01:42:55;30.00;;;27.40;;
11431;SDS011;5772;50.940;6.782;2023-05-09T01:45:23;29.53;;;27.27;;
11431;SDS011;5772;50.940;6.782;2023-05-09T01:47:50;30.83;;;28.63;;
11431;SDS011;5772;50.940;6.782;2023-05-09T01:50:17;31.30;;;28.63;;
11431;SDS011;5772;50.940;6.782;2023-05-09T01:52:45;31.57;;;29.27;;
11431;SDS011;5772;50.940;6.782;2023-05-09T01:55:11;32.00;;;29.70;;
11431;SDS011;5772;50.940;6.782;2023-05-09T01:57:37;29.50;;;27.47;;
11431;SDS011;5772;50.940;6.782;2023-05-09T02:00:03;30.53;;;28.43;;
11431;SDS011;5772;50.940;6.782;2023-05-09T02:02:29;34.00;;;31.63;;
11431;SDS011;5772;50.940;6.782;2023-05-09T02:04:56;30.60;;;28.57;;
11431;SDS011;5772;50.940;6.782;2023-05-09T02:07:22;30.07;;;27.63;;
11431;SDS011;5772;50.940;6.782;2023-05-09T02:09:48;29.00;;;27.10;;
11431;SDS011;5772;50.940;6.782;2023-05-09T02:12:14;29.07;;;27.27;;
11431;SDS011;5772;50.940;6.782;2023-05-09T02:14:39;29.80;;;27.77;;
11431;SDS011;5772;50.940;6.782;2023-05-09T02:17:05;29.40;;;27.43;;
11431;SDS011;5772;50.940;6.782;2023-05-09T02:19:31;28.57;;;26.67;;
11431;SDS011;5772;50.940;6.782;2023-05-09T02:21:58;27.90;;;25.90;;
11431;SDS011;5772;50.940;6.782;2023-05-09T02:24:24;31.47;;;28.93;;
11431;SDS011;5772;50.940;6.782;2023-05-09T02:26:49;32.07;;;29.87;;
11431;SDS011;5772;50.940;6.782;2023-05-09T02:29:15;34.03;;;31.90;;
11431;SDS011;5772;50.940;6.782;2023-05-09T02:31:43;37.10;;;34.67;;
11431;SDS011;5772;50.940;6.782;2023-05-09T02:34:11;37.50;;;34.90;;
11431;SDS011;5772;50.940;6.782;2023-05-09T02:36:37;36.23;;;33.60;;
11431;SDS011;5772;50.940;6.782;2023-05-09T02:39:04;35.93;;;33.47;;
11431;SDS011;5772;50.940;6.782;2023-05-09T02:41:29;36.23;;;33.97;;
11431;SDS011;5772;50.940;6.782;2023-05-09T02:43:55;36.93;;;34.17;;
11431;SDS011;5772;50.940;6.782;2023-05-09T02:46:20;37.67;;;35.03;;
11431;SDS011;5772;50.940;6.782;2023-05-09T02:48:45;36.20;;;33.80;;
11431;SDS011;5772;50.940;6.782;2023-05-09T02:51:11;38.50;;;35.80;;
11431;SDS011;5772;50.940;6.782;2023-05-09T02:53:36;37.80;;;35.30;;
11431;SDS011;5772;50.940;6.782;2023-05-09T02:56:03;35.63;;;33.07;;
11431;SDS011;5772;50.940;6.782;2023-05-09T02:58:29;35.40;;;33.00;;
11431;SDS011;5772;50.940;6.782;2023-05-09T03:00:54;37.00;;;34.50;;
11431;SDS011;5772;50.940;6.782;2023-05-09T03:03:19;35.07;;;32.57;;
11431;SDS011;5772;50.940;6.782;2023-05-09T03:05:45;37.03;;;34.20;;
11431;SDS011;5772;50.940;6.782;2023-05-09T03:08:10;35.63;;;32.83;;
11431;SDS011;5772;50.940;6.782;2023-05-09T03:10:35;33.53;;;31.20;;
11431;SDS011;5772;50.940;6.782;2023-05-09T03:13:02;34.13;;;31.63;;
11431;SDS011;5772;50.940;6.782;2023-05-09T03:15:27;33.93;;;31.33;;
11431;SDS011;5772;50.940;6.782;2023-05-09T03:17:53;35.47;;;32.77;;
11431;SDS011;5772;50.940;6.782;2023-05-09T03:20:18;34.47;;;31.53;;
11431;SDS011;5772;50.940;6.782;2023-05-09T03:22:44;34.23;;;31.57;;
11431;SDS011;5772;50.940;6.782;2023-05-09T03:25:09;34.27;;;31.77;;
11431;SDS011;5772;50.940;6.782;2023-05-09T03:27:34;33.63;;;31.10;;
11431;SDS011;5772;50.940;6.782;2023-05-09T03:30:01;35.80;;;33.17;;
11431;SDS011;5772;50.940;6.782;2023-05-09T03:32:26;36.90;;;34.20;;
11431;SDS011;5772;50.940;6.782;2023-05-09T03:34:52;35.83;;;33.23;;
11431;SDS011;5772;50.940;6.782;2023-05-09T03:37:17;35.63;;;33.23;;
11431;SDS011;5772;50.940;6.782;2023-05-09T03:39:42;34.87;;;32.17;;
11431;SDS011;5772;50.940;6.782;2023-05-09T03:42:08;33.53;;;31.07;;
11431;SDS011;5772;50.940;6.782;2023-05-09T03:44:33;36.40;;;33.70;;
11431;SDS011;5772;50.940;6.782;2023-05-09T03:47:00;36.30;;;33.57;;
11431;SDS011;5772;50.940;6.782;2023-05-09T03:49:25;35.93;;;32.83;;
11431;SDS011;5772;50.940;6.782;2023-05-09T03:51:51;35.73;;;33.17;;
11431;SDS011;5772;50.940;6.782;2023-05-09T03:54:16;34.17;;;31.60;;
11431;SDS011;5772;50.940;6.782;2023-05-09T03:56:41;34.90;;;32.47;;
11431;SDS011;5772;50.940;6.782;2023-05-09T03:59:07;34.07;;;31.53;;
11431;SDS011;5772;50.940;6.782;2023-05-09T04:01:32;35.23;;;32.20;;
11431;SDS011;5772;50.940;6.782;2023-05-09T04:03:59;33.83;;;31.43;;
11431;SDS011;5772;50.940;6.782;2023-05-09T04:06:24;37.87;;;34.77;;
11431;SDS011;5772;50.940;6.782;2023-05-09T04:08:49;35.80;;;33.20;;
11431;SDS011;5772;50.940;6.782;2023-05-09T04:11:15;36.17;;;33.43;;
11431;SDS011;5772;50.940;6.782;2023-05-09T04:13:40;35.27;;;32.53;;
11431;SDS011;5772;50.940;6.782;2023-05-09T04:16:06;37.60;;;34.93;;
11431;SDS011;5772;50.940;6.782;2023-05-09T04:18:31;36.93;;;34.13;;
11431;SDS011;5772;50.940;6.782;2023-05-09T04:20:58;37.00;;;34.10;;
11431;SDS011;5772;50.940;6.782;2023-05-09T04:23:23;37.87;;;35.17;;
11431;SDS011;5772;50.940;6.782;2023-05-09T04:25:48;41.63;;;38.73;;
11431;SDS011;5772;50.940;6.782;2023-05-09T04:28:14;42.00;;;39.00;;
11431;SDS011;5772;50.940;6.782;2023-05-09T04:30:39;44.77;;;41.67;;
11431;SDS011;5772;50.940;6.782;2023-05-09T04:33:05;49.00;;;45.40;;
11431;SDS011;5772;50.940;6.782;2023-05-09T04:35:30;50.60;;;47.43;;
11431;SDS011;5772;50.940;6.782;2023-05-09T04:37:57;53.70;;;50.20;;
11431;SDS011;5772;50.940;6.782;2023-05-09T04:40:22;56.27;;;52.37;;
11431;SDS011;5772;50.940;6.782;2023-05-09T04:42:47;56.17;;;52.33;;
11431;SDS011;5772;50.940;6.782;2023-05-09T04:45:13;54.57;;;50.90;;
11431;SDS011;5772;50.940;6.782;2023-05-09T04:47:38;53.77;;;50.27;;
11431;SDS011;5772;50.940;6.782;2023-05-09T04:50:04;52.60;;;49.03;;
11431;SDS011;5772;50.940;6.782;2023-05-09T04:52:30;52.67;;;48.93;;
11431;SDS011;5772;50.940;6.782;2023-05-09T04:54:56;49.80;;;46.20;;
11431;SDS011;5772;50.940;6.782;2023-05-09T04:57:22;47.60;;;44.47;;
11431;SDS011;5772;50.940;6.782;2023-05-09T04:59:47;51.97;;;48.50;;
11431;SDS011;5772;50.940;6.782;2023-05-09T05:02:13;49.57;;;46.37;;
11431;SDS011;5772;50.940;6.782;2023-05-09T05:04:39;49.80;;;46.57;;
11431;SDS011;5772;50.940;6.782;2023-05-09T05:07:04;51.13;;;47.40;;
11431;SDS011;5772;50.940;6.782;2023-05-09T05:09:29;42.67;;;39.63;;
11431;SDS011;5772;50.940;6.782;2023-05-09T05:11:56;45.07;;;41.87;;
11431;SDS011;5772;50.940;6.782;2023-05-09T05:14:21;40.40;;;37.77;;
11431;SDS011;5772;50.940;6.782;2023-05-09T05:16:47;39.17;;;36.47;;
11431;SDS011;5772;50.940;6.782;2023-05-09T05:19:12;40.07;;;37.37;;
11431;SDS011;5772;50.940;6.782;2023-05-09T05:21:37;42.10;;;39.20;;
11431;SDS011;5772;50.940;6.782;2023-05-09T05:24:03;39.17;;;36.37;;
11431;SDS011;5772;50.940;6.782;2023-05-09T05:26:28;41.80;;;38.53;;
11431;SDS011;5772;50.940;6.782;2023-05-09T05:28:55;43.33;;;40.23;;
11431;SDS011;5772;50.940;6.782;2023-05-09T05:31:20;42.27;;;39.67;;
11431;SDS011;5772;50.940;6.782;2023-05-09T05:33:46;43.70;;;40.27;;
11431;SDS011;5772;50.940;6.782;2023-05-09T05:36:11;37.20;;;34.63;;
11431;SDS011;5772;50.940;6.782;2023-05-09T05:38:36;40.43;;;37.63;;
11431;SDS011;5772;50.940;6.782;2023-05-09T05:41:02;38.33;;;35.87;;
11431;SDS011;5772;50.940;6.782;2023-05-09T05:43:27;36.47;;;33.87;;
11431;SDS011;5772;50.940;6.782;2023-05-09T05:45:54;35.13;;;32.27;;
11431;SDS011;5772;50.940;6.782;2023-05-09T05:48:20;31.83;;;29.23;;
11431;SDS011;5772;50.940;6.782;2023-05-09T05:50:45;31.27;;;28.87;;
11431;SDS011;5772;50.940;6.782;2023-05-09T05:53:10;31.60;;;29.30;;
11431;SDS011;5772;50.940;6.782;2023-05-09T05:55:36;33.87;;;31.37;;
11431;SDS011;5772;50.940;6.782;2023-05-09T05:58:01;37.10;;;34.60;;
11431;SDS011;5772;50.940;6.782;2023-05-09T06:00:26;39.43;;;36.70;;
11431;SDS011;5772;50.940;6.782;2023-05-09T06:02:53;40.70;;;38.00;;
11431;SDS011;5772;50.940;6.782;2023-05-09T06:05:19;37.17;;;34.10;;
11431;SDS011;5772;50.940;6.782;2023-05-09T06:07:44;38.07;;;35.07;;
11431;SDS011;5772;50.940;6.782;2023-05-09T06:10:09;35.80;;;33.00;;
11431;SDS011;5772;50.940;6.782;2023-05-09T06:12:35;36.43;;;34.10;;
11431;SDS011;5772;50.940;6.782;2023-05-09T06:15:00;38.37;;;35.77;;
11431;SDS011;5772;50.940;6.782;2023-05-09T06:17:26;37.37;;;34.80;;
11431;SDS011;5772;50.940;6.782;2023-05-09T06:19:53;28.67;;;26.70;;
11431;SDS011;5772;50.940;6.782;2023-05-09T06:22:18;30.53;;;28.37;;
11431;SDS011;5772;50.940;6.782;2023-05-09T06:24:44;32.40;;;30.20;;
11431;SDS011;5772;50.940;6.782;2023-05-09T06:27:09;33.27;;;30.97;;
11431;SDS011;5772;50.940;6.782;2023-05-09T06:29:35;34.73;;;32.00;;
11431;SDS011;5772;50.940;6.782;2023-05-09T06:32:00;32.23;;;30.03;;
11431;SDS011;5772;50.940;6.782;2023-05-09T06:34:25;33.67;;;31.23;;
11431;SDS011;5772;50.940;6.782;2023-05-09T06:36:52;30.53;;;28.47;;
11431;SDS011;5772;50.940;6.782;2023-05-09T06:39:17;28.23;;;26.40;;
11431;SDS011;5772;50.940;6.782;2023-05-09T06:41:43;26.20;;;24.30;;
11431;SDS011;5772;50.940;6.782;2023-05-09T06:44:08;28.23;;;26.53;;
11431;SDS011;5772;50.940;6.782;2023-05-09T06:46:33;25.23;;;23.43;;
11431;SDS011;5772;50.940;6.782;2023-05-09T06:48:59;24.20;;;22.23;;
11431;SDS011;5772;50.940;6.782;2023-05-09T06:51:24;24.77;;;23.37;;
11431;SDS011;5772;50.940;6.782;2023-05-09T06:53:51;25.63;;;24.03;;
11431;SDS011;5772;50.940;6.782;2023-05-09T06:56:16;24.40;;;23.00;;
11431;SDS011;5772;50.940;6.782;2023-05-09T06:58:42;23.47;;;22.23;;
11431;SDS011;5772;50.940;6.782;2023-05-09T07:01:07;23.57;;;22.27;;
11431;SDS011;5772;50.940;6.782;2023-05-09T07:03:32;24.00;;;22.37;;
11431;SDS011;5772;50.940;6.782;2023-05-09T07:05:58;22.77;;;21.37;;
11431;SDS011;5772;50.940;6.782;2023-05-09T07:08:23;22.50;;;21.30;;
11431;SDS011;5772;50.940;6.782;2023-05-09T07:10:50;22.00;;;20.47;;
11431;SDS011;5772;50.940;6.782;2023-05-09T07:13:15;18.73;;;17.83;;
11431;SDS011;5772;50.940;6.782;2023-05-09T07:15:41;21.67;;;20.37;;
11431;SDS011;5772;50.940;6.782;2023-05-09T07:18:06;19.47;;;18.47;;
11431;SDS011;5772;50.940;6.782;2023-05-09T07:20:31;21.20;;;19.90;;
11431;SDS011;5772;50.940;6.782;2023-05-09T07:22:57;21.10;;;20.00;;
11431;SDS011;5772;50.940;6.782;2023-05-09T07:25:22;22.23;;;21.10;;
11431;SDS011;5772;50.940;6.782;2023-05-09T07:27:49;21.00;;;19.70;;
11431;SDS011;5772;50.940;6.782;2023-05-09T07:30:14;20.97;;;19.93;;
11431;SDS011;5772;50.940;6.782;2023-05-09T07:32:40;21.43;;;19.73;;
11431;SDS011;5772;50.940;6.782;2023-05-09T07:35:05;18.70;;;17.70;;
11431;SDS011;5772;50.940;6.782;2023-05-09T07:37:31;20.60;;;19.60;;
11431;SDS011;5772;50.940;6.782;2023-05-09T07:39:56;19.60;;;18.60;;
11431;SDS011;5772;50.940;6.782;2023-05-09T07:42:22;20.33;;;19.33;;
11431;SDS011;5772;50.940;6.782;2023-05-09T07:44:48;20.17;;;19.13;;
11431;SDS011;5772;50.940;6.782;2023-05-09T07:47:14;19.13;;;18.23;;
11431;SDS011;5772;50.940;6.782;2023-05-09T07:49:39;20.40;;;19.47;;
11431;SDS011;5772;50.940;6.782;2023-05-09T07:52:04;21.57;;;20.50;;
11431;SDS011;5772;50.940;6.782;2023-05-09T07:54:30;21.23;;;20.17;;
11431;SDS011;5772;50.940;6.782;2023-05-09T07:56:55;22.07;;;20.97;;
11431;SDS011;5772;50.940;6.782;2023-05-09T07:59:20;21.98;;;21.00;;
11431;SDS011;5772;50.940;6.782;2023-05-09T08:01:47;20.80;;;19.52;;
11431;SDS011;5772;50.940;6.782;2023-05-09T08:04:12;21.15;;;20.05;;
11431;SDS011;5772;50.940;6.782;2023-05-09T08:06:38;19.85;;;18.85;;
11431;SDS011;5772;50.940;6.782;2023-05-09T08:09:03;18.15;;;17.35;;
11431;SDS011;5772;50.940;6.782;2023-05-09T08:11:30;18.27;;;17.27;;
11431;SDS011;5772;50.940;6.782;2023-05-09T08:13:56;17.90;;;17.10;;
11431;SDS011;5772;50.940;6.782;2023-05-09T08:16:22;18.55;;;17.45;;
11431;SDS011;5772;50.940;6.782;2023-05-09T08:18:49;17.75;;;16.85;;
11431;SDS011;5772;50.940;6.782;2023-05-09T08:21:14;17.42;;;16.30;;
11431;SDS011;5772;50.940;6.782;2023-05-09T08:23:39;16.60;;;15.80;;
11431;SDS011;5772;50.940;6.782;2023-05-09T08:26:05;16.98;;;16.17;;
11431;SDS011;5772;50.940;6.782;2023-05-09T08:28:30;16.10;;;15.40;;
11431;SDS011;5772;50.940;6.782;2023-05-09T08:30:55;15.05;;;14.38;;
11431;SDS011;5772;50.940;6.782;2023-05-09T08:33:21;16.38;;;15.57;;
11431;SDS011;5772;50.940;6.782;2023-05-09T08:35:50;16.00;;;15.30;;
11431;SDS011;5772;50.940;6.782;2023-05-09T08:38:16;17.33;;;16.42;;
11431;SDS011;5772;50.940;6.782;2023-05-09T08:40:41;17.17;;;16.27;;
11431;SDS011;5772;50.940;6.782;2023-05-09T08:43:08;16.88;;;15.98;;
11431;SDS011;5772;50.940;6.782;2023-05-09T08:45:34;17.02;;;16.17;;
11431;SDS011;5772;50.940;6.782;2023-05-09T08:48:01;17.48;;;16.60;;
11431;SDS011;5772;50.940;6.782;2023-05-09T08:50:26;18.55;;;17.35;;
11431;SDS011;5772;50.940;6.782;2023-05-09T08:52:53;18.00;;;17.20;;
11431;SDS011;5772;50.940;6.782;2023-05-09T08:55:19;18.40;;;17.60;;
11431;SDS011;5772;50.940;6.782;2023-05-09T08:57:44;18.08;;;17.17;;
11431;SDS011;5772;50.940;6.782;2023-05-09T09:00:10;19.42;;;18.42;;
11431;SDS011;5772;50.940;6.782;2023-05-09T09:02:39;18.58;;;17.60;;
11431;SDS011;5772;50.940;6.782;2023-05-09T09:05:05;17.75;;;16.95;;
11431;SDS011;5772;50.940;6.782;2023-05-09T09:07:30;18.48;;;17.77;;
11431;SDS011;5772;50.940;6.782;2023-05-09T09:09:59;18.35;;;17.55;;
11431;SDS011;5772;50.940;6.782;2023-05-09T09:12:24;18.52;;;17.65;;
11431;SDS011;5772;50.940;6.782;2023-05-09T09:14:51;18.70;;;17.58;;
11431;SDS011;5772;50.940;6.782;2023-05-09T09:17:19;17.38;;;16.58;;
11431;SDS011;5772;50.940;6.782;2023-05-09T09:19:46;17.65;;;16.77;;
11431;SDS011;5772;50.940;6.782;2023-05-09T09:22:14;17.67;;;16.88;;
11431;SDS011;5772;50.940;6.782;2023-05-09T09:24:40;19.08;;;18.25;;
11431;SDS011;5772;50.940;6.782;2023-05-09T09:27:07;18.02;;;17.13;;
11431;SDS011;5772;50.940;6.782;2023-05-09T09:29:32;16.98;;;16.25;;
11431;SDS011;5772;50.940;6.782;2023-05-09T09:32:00;16.70;;;15.93;;
11431;SDS011;5772;50.940;6.782;2023-05-09T09:34:26;18.70;;;17.90;;
11431;SDS011;5772;50.940;6.782;2023-05-09T09:36:52;21.27;;;20.27;;
11431;SDS011;5772;50.940;6.782;2023-05-09T09:39:17;19.40;;;18.60;;
11431;SDS011;5772;50.940;6.782;2023-05-09T09:41:43;16.75;;;16.05;;
11431;SDS011;5772;50.940;6.782;2023-05-09T09:44:10;17.73;;;16.88;;
11431;SDS011;5772;50.940;6.782;2023-05-09T09:46:40;17.33;;;16.63;;
11431;SDS011;5772;50.940;6.782;2023-05-09T09:49:07;15.95;;;15.13;;
11431;SDS011;5772;50.940;6.782;2023-05-09T09:51:33;17.88;;;16.90;;
11431;SDS011;5772;50.940;6.782;2023-05-09T09:54:00;16.73;;;16.02;;
11431;SDS011;5772;50.940;6.782;2023-05-09T09:56:36;17.80;;;17.02;;
11431;SDS011;5772;50.940;6.782;2023-05-09T09:59:06;17.52;;;16.25;;
11431;SDS011;5772;50.940;6.782;2023-05-09T10:01:34;16.25;;;15.45;;
11431;SDS011;5772;50.940;6.782;2023-05-09T10:03:59;17.73;;;16.92;;
11431;SDS011;5772;50.940;6.782;2023-05-09T10:06:27;18.95;;;18.13;;
11431;SDS011;5772;50.940;6.782;2023-05-09T10:08:52;17.48;;;16.67;;
11431;SDS011;5772;50.940;6.782;2023-05-09T10:11:17;18.75;;;17.85;;
11431;SDS011;5772;50.940;6.782;2023-05-09T10:13:43;16.80;;;16.10;;
11431;SDS011;5772;50.940;6.782;2023-05-09T10:16:09;17.85;;;17.05;;
11431;SDS011;5772;50.940;6.782;2023-05-09T10:18:36;18.35;;;17.55;;
11431;SDS011;5772;50.940;6.782;2023-05-09T10:21:03;18.25;;;17.45;;
11431;SDS011;5772;50.940;6.782;2023-05-09T10:23:29;16.65;;;15.93;;
11431;SDS011;5772;50.940;6.782;2023-05-09T10:25:57;16.92;;;16.13;;
11431;SDS011;5772;50.940;6.782;2023-05-09T10:28:32;17.77;;;16.98;;
11431;SDS011;5772;50.940;6.782;2023-05-09T10:30:58;17.67;;;16.88;;
11431;SDS011;5772;50.940;6.782;2023-05-09T10:33:29;19.65;;;18.77;;
11431;SDS011;5772;50.940;6.782;2023-05-09T10:35:57;18.38;;;17.48;;
11431;SDS011;5772;50.940;6.782;2023-05-09T10:38:22;17.88;;;17.17;;
11431;SDS011;5772;50.940;6.782;2023-05-09T10:40:48;20.95;;;20.02;;
11431;SDS011;5772;50.940;6.782;2023-05-09T10:43:14;19.17;;;18.27;;
11431;SDS011;5772;50.940;6.782;2023-05-09T10:45:40;20.42;;;19.50;;
11431;SDS011;5772;50.940;6.782;2023-05-09T10:48:05;19.77;;;18.98;;
11431;SDS011;5772;50.940;6.782;2023-05-09T10:50:31;18.58;;;17.70;;
11431;SDS011;5772;50.940;6.782;2023-05-09T10:53:08;19.60;;;18.70;;
11431;SDS011;5772;50.940;6.782;2023-05-09T10:55:34;20.15;;;19.20;;
11431;SDS011;5772;50.940;6.782;2023-05-09T10:58:01;19.75;;;18.85;;
11431;SDS011;5772;50.940;6.782;2023-05-09T11:00:42;17.80;;;17.00;;
11431;SDS011;5772;50.940;6.782;2023-05-09T11:03:07;20.60;;;19.70;;
11431;SDS011;5772;50.940;6.782;2023-05-09T11:05:37;21.20;;;20.20;;
11431;SDS011;5772;50.940;6.782;2023-05-09T11:08:20;19.65;;;18.85;;
11431;SDS011;5772;50.940;6.782;2023-05-09T11:10:47;19.40;;;18.58;;
11431;SDS011;5772;50.940;6.782;2023-05-09T11:13:12;20.90;;;19.90;;
11431;SDS011;5772;50.940;6.782;2023-05-09T11:15:49;20.65;;;19.58;;
11431;SDS011;5772;50.940;6.782;2023-05-09T11:18:15;20.83;;;19.83;;
11431;SDS011;5772;50.940;6.782;2023-05-09T11:20:43;21.23;;;20.20;;
11431;SDS011;5772;50.940;6.782;2023-05-09T11:23:09;18.63;;;17.80;;
11431;SDS011;5772;50.940;6.782;2023-05-09T11:25:36;18.33;;;17.42;;
11431;SDS011;5772;50.940;6.782;2023-05-09T11:28:03;19.83;;;18.92;;
11431;SDS011;5772;50.940;6.782;2023-05-09T11:30:35;21.13;;;20.00;;
11431;SDS011;5772;50.940;6.782;2023-05-09T11:33:02;19.88;;;18.98;;
11431;SDS011;5772;50.940;6.782;2023-05-09T11:35:28;20.75;;;19.73;;
11431;SDS011;5772;50.940;6.782;2023-05-09T11:37:57;20.23;;;19.23;;
11431;SDS011;5772;50.940;6.782;2023-05-09T11:40:23;21.10;;;20.02;;
11431;SDS011;5772;50.940;6.782;2023-05-09T11:42:51;18.58;;;17.77;;
11431;SDS011;5772;50.940;6.782;2023-05-09T11:45:28;22.85;;;21.75;;
11431;SDS011;5772;50.940;6.782;2023-05-09T11:47:54;20.65;;;19.65;;
11431;SDS011;5772;50.940;6.782;2023-05-09T11:50:20;22.48;;;21.48;;
11431;SDS011;5772;50.940;6.782;2023-05-09T11:52:46;21.80;;;20.60;;
11431;SDS011;5772;50.940;6.782;2023-05-09T11:55:12;22.02;;;21.02;;
11431;SDS011;5772;50.940;6.782;2023-05-09T11:57:39;22.17;;;21.17;;
11431;SDS011;5772;50.940;6.782;2023-05-09T12:00:07;18.80;;;18.05;;
11431;SDS011;5772;50.940;6.782;2023-05-09T12:02:33;21.85;;;20.75;;
11431;SDS011;5772;50.940;6.782;2023-05-09T12:05:05;22.02;;;20.80;;
11431;SDS011;5772;50.940;6.782;2023-05-09T12:07:34;19.25;;;18.35;;
11431;SDS011;5772;50.940;6.782;2023-05-09T12:09:59;22.75;;;21.75;;
11431;SDS011;5772;50.940;6.782;2023-05-09T12:12:25;19.63;;;18.73;;
11431;SDS011;5772;50.940;6.782;2023-05-09T12:14:50;19.20;;;18.30;;
11431;SDS011;5772;50.940;6.782;2023-05-09T12:17:17;18.95;;;18.13;;
11431;SDS011;5772;50.940;6.782;2023-05-09T12:19:42;17.83;;;17.02;;
11431;SDS011;5772;50.940;6.782;2023-05-09T12:22:08;17.50;;;16.60;;
11431;SDS011;5772;50.940;6.782;2023-05-09T12:24:33;16.85;;;16.15;;
11431;SDS011;5772;50.940;6.782;2023-05-09T12:26:59;17.10;;;16.30;;
11431;SDS011;5772;50.940;6.782;2023-05-09T12:29:25;17.67;;;16.88;;
11431;SDS011;5772;50.940;6.782;2023-05-09T12:31:51;18.20;;;17.30;;
11431;SDS011;5772;50.940;6.782;2023-05-09T12:34:18;17.40;;;16.65;;
11431;SDS011;5772;50.940;6.782;2023-05-09T12:36:44;17.85;;;17.05;;
11431;SDS011;5772;50.940;6.782;2023-05-09T12:39:10;15.65;;;14.95;;
11431;SDS011;5772;50.940;6.782;2023-05-09T12:41:41;17.30;;;16.33;;
11431;SDS011;5772;50.940;6.782;2023-05-09T12:44:07;17.00;;;16.30;;
11431;SDS011;5772;50.940;6.782;2023-05-09T12:46:32;16.52;;;15.77;;
11431;SDS011;5772;50.940;6.782;2023-05-09T12:48:58;16.40;;;15.55;;
11431;SDS011;5772;50.940;6.782;2023-05-09T12:51:25;17.40;;;16.50;;
11431;SDS011;5772;50.940;6.782;2023-05-09T12:53:50;15.88;;;15.23;;
11431;SDS011;5772;50.940;6.782;2023-05-09T12:56:16;17.30;;;16.40;;
11431;SDS011;5772;50.940;6.782;2023-05-09T12:58:48;16.40;;;15.70;;
11431;SDS011;5772;50.940;6.782;2023-05-09T13:01:14;17.67;;;16.88;;
11431;SDS011;5772;50.940;6.782;2023-05-09T13:03:39;16.95;;;16.25;;
11431;SDS011;5772;50.940;6.782;2023-05-09T13:06:08;15.90;;;14.90;;
11431;SDS011;5772;50.940;6.782;2023-05-09T13:08:37;18.65;;;17.25;;
11431;SDS011;5772;50.940;6.782;2023-05-09T13:11:03;16.45;;;15.65;;
11431;SDS011;5772;50.940;6.782;2023-05-09T13:13:28;16.58;;;15.85;;
11431;SDS011;5772;50.940;6.782;2023-05-09T13:15:53;15.73;;;14.90;;
11431;SDS011;5772;50.940;6.782;2023-05-09T13:18:19;16.92;;;16.13;;
11431;SDS011;5772;50.940;6.782;2023-05-09T13:20:44;15.90;;;15.20;;
11431;SDS011;5772;50.940;6.782;2023-05-09T13:23:10;17.10;;;16.30;;
11431;SDS011;5772;50.940;6.782;2023-05-09T13:25:38;16.23;;;15.48;;
11431;SDS011;5772;50.940;6.782;2023-05-09T13:28:03;16.65;;;15.88;;
11431;SDS011;5772;50.940;6.782;2023-05-09T13:30:28;16.30;;;15.50;;
11431;SDS011;5772;50.940;6.782;2023-05-09T13:32:54;16.45;;;15.68;;
11431;SDS011;5772;50.940;6.782;2023-05-09T13:35:19;17.58;;;16.77;;
11431;SDS011;5772;50.940;6.782;2023-05-09T13:37:44;16.95;;;16.15;;
11431;SDS011;5772;50.940;6.782;2023-05-09T13:40:10;17.27;;;16.48;;
11431;SDS011;5772;50.940;6.782;2023-05-09T13:42:37;16.40;;;15.70;;
11431;SDS011;5772;50.940;6.782;2023-05-09T13:45:03;16.08;;;15.38;;
11431;SDS011;5772;50.940;6.782;2023-05-09T13:47:29;16.70;;;16.00;;
11431;SDS011;5772;50.940;6.782;2023-05-09T13:49:55;16.77;;;16.08;;
11431;SDS011;5772;50.940;6.782;2023-05-09T13:52:20;16.00;;;15.30;;
11431;SDS011;5772;50.940;6.782;2023-05-09T13:54:46;16.48;;;15.77;;
11431;SDS011;5772;50.940;6.782;2023-05-09T13:57:11;25.17;;;23.98;;
11431;SDS011;5772;50.940;6.782;2023-05-09T13:59:38;25.00;;;23.70;;
11431;SDS011;5772;50.940;6.782;2023-05-09T14:02:03;22.80;;;21.65;;
11431;SDS011;5772;50.940;6.782;2023-05-09T14:04:29;22.88;;;21.67;;
11431;SDS011;5772;50.940;6.782;2023-05-09T14:06:55;23.20;;;22.10;;
11431;SDS011;5772;50.940;6.782;2023-05-09T14:09:20;20.02;;;18.98;;
11431;SDS011;5772;50.940;6.782;2023-05-09T14:11:46;19.00;;;18.02;;
11431;SDS011;5772;50.940;6.782;2023-05-09T14:14:12;22.13;;;20.92;;
11431;SDS011;5772;50.940;6.782;2023-05-09T14:16:38;21.87;;;20.37;;
11431;SDS011;5772;50.940;6.782;2023-05-09T14:19:04;25.07;;;23.67;;
11431;SDS011;5772;50.940;6.782;2023-05-09T14:21:29;27.03;;;25.73;;
11431;SDS011;5772;50.940;6.782;2023-05-09T14:23:54;25.20;;;23.57;;
11431;SDS011;5772;50.940;6.782;2023-05-09T14:26:20;25.80;;;24.47;;
11431;SDS011;5772;50.940;6.782;2023-05-09T14:28:45;26.63;;;25.23;;
11431;SDS011;5772;50.940;6.782;2023-05-09T14:31:10;29.37;;;27.77;;